sensor_id;sensor_type;location;lat;lon;timestamp;temperature;humidity
64796;DHT22;51229;51.980;6.722;2022-07-29T00:00:37;16.40;71.50
64796;DHT22;51229;51.980;6.722;2022-07-29T00:03:03;16.60;71.80
64796;DHT22;51229;51.980;6.722;2022-07-29T00:05:28;16.60;71.70
64796;DHT22;51229;51.980;6.722;2022-07-29T00:07:54;16.90;70.40
64796;DHT22;51229;51.980;6.722;2022-07-29T00:10:20;17.10;69.50
64796;DHT22;51229;51.980;6.722;2022-07-29T00:12:45;16.90;70.10
64796;DHT22;51229;51.980;6.722;2022-07-29T00:15:11;17.50;68.30
64796;DHT22;51229;51.980;6.722;2022-07-29T00:17:37;17.70;67.70
64796;DHT22;51229;51.980;6.722;2022-07-29T00:20:03;17.60;67.80
64796;DHT22;51229;51.980;6.722;2022-07-29T00:22:29;17.70;68.20
64796;DHT22;51229;51.980;6.722;2022-07-29T00:24:54;17.30;68.50
64796;DHT22;51229;51.980;6.722;2022-07-29T00:27:20;17.40;68.50
64796;DHT22;51229;51.980;6.722;2022-07-29T00:29:46;16.70;70.70
64796;DHT22;51229;51.980;6.722;2022-07-29T00:32:12;15.90;73.20
64796;DHT22;51229;51.980;6.722;2022-07-29T00:34:37;16.10;73.00
64796;DHT22;51229;51.980;6.722;2022-07-29T00:37:22;16.10;73.20
64796;DHT22;51229;51.980;6.722;2022-07-29T00:39:48;16.40;71.30
64796;DHT22;51229;51.980;6.722;2022-07-29T00:42:13;16.30;72.90
64796;DHT22;51229;51.980;6.722;2022-07-29T00:44:40;16.10;73.30
64796;DHT22;51229;51.980;6.722;2022-07-29T00:47:07;16.60;72.60
64796;DHT22;51229;51.980;6.722;2022-07-29T00:49:34;17.10;69.60
64796;DHT22;51229;51.980;6.722;2022-07-29T00:52:06;16.90;69.90
64796;DHT22;51229;51.980;6.722;2022-07-29T00:54:32;16.70;71.20
64796;DHT22;51229;51.980;6.722;2022-07-29T00:56:59;16.20;72.70
64796;DHT22;51229;51.980;6.722;2022-07-29T00:59:26;16.80;70.60
64796;DHT22;51229;51.980;6.722;2022-07-29T01:01:53;16.30;73.00
64796;DHT22;51229;51.980;6.722;2022-07-29T01:04:19;16.20;72.20
64796;DHT22;51229;51.980;6.722;2022-07-29T01:06:46;16.50;71.00
64796;DHT22;51229;51.980;6.722;2022-07-29T01:09:13;16.70;70.30
64796;DHT22;51229;51.980;6.722;2022-07-29T01:11:39;17.10;69.10
64796;DHT22;51229;51.980;6.722;2022-07-29T01:14:06;17.30;69.70
64796;DHT22;51229;51.980;6.722;2022-07-29T01:16:42;17.20;68.50
64796;DHT22;51229;51.980;6.722;2022-07-29T01:30:25;16.70;70.50
64796;DHT22;51229;51.980;6.722;2022-07-29T01:33:00;16.60;70.50
64796;DHT22;51229;51.980;6.722;2022-07-29T01:35:33;17.10;68.80
64796;DHT22;51229;51.980;6.722;2022-07-29T01:38:21;17.30;68.20
64796;DHT22;51229;51.980;6.722;2022-07-29T01:40:52;17.20;68.00
64796;DHT22;51229;51.980;6.722;2022-07-29T01:43:23;17.30;67.70
64796;DHT22;51229;51.980;6.722;2022-07-29T01:46:05;17.20;67.90
64796;DHT22;51229;51.980;6.722;2022-07-29T01:48:47;17.30;68.40
64796;DHT22;51229;51.980;6.722;2022-07-29T01:51:21;17.20;67.90
64796;DHT22;51229;51.980;6.722;2022-07-29T01:53:59;17.20;69.10
64796;DHT22;51229;51.980;6.722;2022-07-29T01:56:28;16.90;68.40
64796;DHT22;51229;51.980;6.722;2022-07-29T01:58:57;17.20;67.70
64796;DHT22;51229;51.980;6.722;2022-07-29T02:01:24;17.20;67.50
64796;DHT22;51229;51.980;6.722;2022-07-29T02:03:50;17.00;68.30
64796;DHT22;51229;51.980;6.722;2022-07-29T02:06:19;16.90;68.70
64796;DHT22;51229;51.980;6.722;2022-07-29T02:08:47;17.00;68.00
64796;DHT22;51229;51.980;6.722;2022-07-29T02:11:14;17.10;67.80
64796;DHT22;51229;51.980;6.722;2022-07-29T02:13:40;16.90;68.50
64796;DHT22;51229;51.980;6.722;2022-07-29T02:16:09;16.40;69.30
64796;DHT22;51229;51.980;6.722;2022-07-29T02:18:37;16.90;68.30
64796;DHT22;51229;51.980;6.722;2022-07-29T02:21:05;17.10;67.50
64796;DHT22;51229;51.980;6.722;2022-07-29T02:23:33;17.20;67.40
64796;DHT22;51229;51.980;6.722;2022-07-29T02:26:01;17.10;67.40
64796;DHT22;51229;51.980;6.722;2022-07-29T02:28:29;17.10;68.00
64796;DHT22;51229;51.980;6.722;2022-07-29T02:30:58;16.80;68.40
64796;DHT22;51229;51.980;6.722;2022-07-29T02:33:26;16.80;68.30
64796;DHT22;51229;51.980;6.722;2022-07-29T02:35:52;16.90;67.90
64796;DHT22;51229;51.980;6.722;2022-07-29T02:38:20;17.00;67.70
64796;DHT22;51229;51.980;6.722;2022-07-29T02:41:11;16.90;67.60
64796;DHT22;51229;51.980;6.722;2022-07-29T02:43:38;16.60;68.60
64796;DHT22;51229;51.980;6.722;2022-07-29T02:46:13;16.70;68.50
64796;DHT22;51229;51.980;6.722;2022-07-29T02:48:51;16.80;70.10
64796;DHT22;51229;51.980;6.722;2022-07-29T02:51:25;16.80;67.90
64796;DHT22;51229;51.980;6.722;2022-07-29T02:53:56;16.90;67.80
64796;DHT22;51229;51.980;6.722;2022-07-29T02:56:25;16.90;67.90
64796;DHT22;51229;51.980;6.722;2022-07-29T02:58:58;16.80;67.80
64796;DHT22;51229;51.980;6.722;2022-07-29T03:01:31;16.80;67.50
64796;DHT22;51229;51.980;6.722;2022-07-29T03:04:00;16.80;67.50
64796;DHT22;51229;51.980;6.722;2022-07-29T03:06:27;16.80;67.60
64796;DHT22;51229;51.980;6.722;2022-07-29T03:08:54;16.80;67.40
64796;DHT22;51229;51.980;6.722;2022-07-29T03:11:21;16.80;67.40
64796;DHT22;51229;51.980;6.722;2022-07-29T03:13:47;16.80;67.40
64796;DHT22;51229;51.980;6.722;2022-07-29T03:16:13;16.80;67.30
64796;DHT22;51229;51.980;6.722;2022-07-29T03:18:39;16.80;67.10
64796;DHT22;51229;51.980;6.722;2022-07-29T03:21:05;16.80;67.20
64796;DHT22;51229;51.980;6.722;2022-07-29T03:23:30;16.80;67.20
64796;DHT22;51229;51.980;6.722;2022-07-29T03:25:56;16.70;68.70
64796;DHT22;51229;51.980;6.722;2022-07-29T03:28:22;16.40;68.20
64796;DHT22;51229;51.980;6.722;2022-07-29T03:30:48;16.40;68.20
64796;DHT22;51229;51.980;6.722;2022-07-29T03:33:14;16.50;67.80
64796;DHT22;51229;51.980;6.722;2022-07-29T03:35:40;16.60;67.70
64796;DHT22;51229;51.980;6.722;2022-07-29T03:38:05;16.60;67.60
64796;DHT22;51229;51.980;6.722;2022-07-29T03:43:10;16.60;67.50
64796;DHT22;51229;51.980;6.722;2022-07-29T03:45:37;16.60;67.40
64796;DHT22;51229;51.980;6.722;2022-07-29T03:48:10;16.50;67.50
64796;DHT22;51229;51.980;6.722;2022-07-29T03:50:38;16.60;67.40
64796;DHT22;51229;51.980;6.722;2022-07-29T03:53:04;16.60;67.40
64796;DHT22;51229;51.980;6.722;2022-07-29T03:55:33;16.50;67.40
64796;DHT22;51229;51.980;6.722;2022-07-29T03:58:01;16.50;67.50
64796;DHT22;51229;51.980;6.722;2022-07-29T04:00:28;16.50;67.30
64796;DHT22;51229;51.980;6.722;2022-07-29T04:02:56;16.50;67.40
64796;DHT22;51229;51.980;6.722;2022-07-29T04:05:21;16.50;67.40
64796;DHT22;51229;51.980;6.722;2022-07-29T04:07:48;16.50;67.40
64796;DHT22;51229;51.980;6.722;2022-07-29T04:10:14;16.50;67.30
64796;DHT22;51229;51.980;6.722;2022-07-29T04:12:44;16.40;67.40
64796;DHT22;51229;51.980;6.722;2022-07-29T04:15:10;16.40;67.50
64796;DHT22;51229;51.980;6.722;2022-07-29T04:17:36;16.40;67.50
64796;DHT22;51229;51.980;6.722;2022-07-29T04:20:03;16.40;67.50
64796;DHT22;51229;51.980;6.722;2022-07-29T04:22:29;16.40;67.50
64796;DHT22;51229;51.980;6.722;2022-07-29T04:24:54;16.30;67.50
64796;DHT22;51229;51.980;6.722;2022-07-29T04:27:20;16.40;68.40
64796;DHT22;51229;51.980;6.722;2022-07-29T04:29:45;16.30;70.40
64796;DHT22;51229;51.980;6.722;2022-07-29T04:32:11;16.20;68.00
64796;DHT22;51229;51.980;6.722;2022-07-29T04:34:37;16.30;67.80
64796;DHT22;51229;51.980;6.722;2022-07-29T04:37:02;16.30;67.90
64796;DHT22;51229;51.980;6.722;2022-07-29T04:39:28;16.30;67.80
64796;DHT22;51229;51.980;6.722;2022-07-29T04:41:53;16.30;67.70
64796;DHT22;51229;51.980;6.722;2022-07-29T04:44:19;16.30;67.70
64796;DHT22;51229;51.980;6.722;2022-07-29T04:46:45;16.30;67.70
64796;DHT22;51229;51.980;6.722;2022-07-29T04:49:10;16.30;67.70
64796;DHT22;51229;51.980;6.722;2022-07-29T04:51:36;16.30;67.80
64796;DHT22;51229;51.980;6.722;2022-07-29T04:54:02;16.20;67.70
64796;DHT22;51229;51.980;6.722;2022-07-29T04:56:27;16.30;67.80
64796;DHT22;51229;51.980;6.722;2022-07-29T04:58:53;16.20;67.70
64796;DHT22;51229;51.980;6.722;2022-07-29T05:01:19;16.20;68.00
64796;DHT22;51229;51.980;6.722;2022-07-29T05:03:45;16.20;67.90
64796;DHT22;51229;51.980;6.722;2022-07-29T05:06:11;16.20;67.70
64796;DHT22;51229;51.980;6.722;2022-07-29T05:08:37;16.20;67.90
64796;DHT22;51229;51.980;6.722;2022-07-29T05:11:03;16.10;72.00
64796;DHT22;51229;51.980;6.722;2022-07-29T05:13:29;15.90;70.20
64796;DHT22;51229;51.980;6.722;2022-07-29T05:15:54;15.40;71.10
64796;DHT22;51229;51.980;6.722;2022-07-29T05:18:20;15.50;70.90
64796;DHT22;51229;51.980;6.722;2022-07-29T05:20:46;15.00;73.50
64796;DHT22;51229;51.980;6.722;2022-07-29T05:23:12;14.90;76.70
64796;DHT22;51229;51.980;6.722;2022-07-29T05:25:38;14.10;89.20
64796;DHT22;51229;51.980;6.722;2022-07-29T05:28:04;13.90;91.10
64796;DHT22;51229;51.980;6.722;2022-07-29T05:30:30;14.50;80.60
64796;DHT22;51229;51.980;6.722;2022-07-29T05:32:55;15.10;79.50
64796;DHT22;51229;51.980;6.722;2022-07-29T05:35:21;15.40;76.90
64796;DHT22;51229;51.980;6.722;2022-07-29T05:37:47;15.50;76.30
64796;DHT22;51229;51.980;6.722;2022-07-29T05:40:12;15.40;75.10
64796;DHT22;51229;51.980;6.722;2022-07-29T05:42:38;15.60;73.80
64796;DHT22;51229;51.980;6.722;2022-07-29T05:45:04;15.70;73.00
64796;DHT22;51229;51.980;6.722;2022-07-29T05:47:30;15.80;72.40
64796;DHT22;51229;51.980;6.722;2022-07-29T05:49:56;15.90;72.10
64796;DHT22;51229;51.980;6.722;2022-07-29T05:52:21;15.90;71.90
64796;DHT22;51229;51.980;6.722;2022-07-29T05:54:47;15.90;71.70
64796;DHT22;51229;51.980;6.722;2022-07-29T05:57:21;15.90;71.60
64796;DHT22;51229;51.980;6.722;2022-07-29T05:59:47;15.90;71.50
64796;DHT22;51229;51.980;6.722;2022-07-29T06:02:13;15.90;71.60
64796;DHT22;51229;51.980;6.722;2022-07-29T06:04:39;15.90;71.50
64796;DHT22;51229;51.980;6.722;2022-07-29T06:07:05;15.90;71.70
64796;DHT22;51229;51.980;6.722;2022-07-29T06:09:31;15.80;72.00
64796;DHT22;51229;51.980;6.722;2022-07-29T06:11:57;15.80;72.20
64796;DHT22;51229;51.980;6.722;2022-07-29T06:14:24;15.80;72.20
64796;DHT22;51229;51.980;6.722;2022-07-29T06:16:49;15.70;72.40
64796;DHT22;51229;51.980;6.722;2022-07-29T06:19:15;15.70;72.90
64796;DHT22;51229;51.980;6.722;2022-07-29T06:21:42;15.70;72.80
64796;DHT22;51229;51.980;6.722;2022-07-29T06:24:08;15.30;76.50
64796;DHT22;51229;51.980;6.722;2022-07-29T06:26:33;13.90;96.20
64796;DHT22;51229;51.980;6.722;2022-07-29T06:28:59;13.10;96.30
64796;DHT22;51229;51.980;6.722;2022-07-29T06:31:25;13.30;92.50
64796;DHT22;51229;51.980;6.722;2022-07-29T06:33:50;13.80;93.80
64796;DHT22;51229;51.980;6.722;2022-07-29T06:36:16;14.50;89.10
64796;DHT22;51229;51.980;6.722;2022-07-29T06:38:42;15.10;84.50
64796;DHT22;51229;51.980;6.722;2022-07-29T06:41:08;15.50;81.30
64796;DHT22;51229;51.980;6.722;2022-07-29T06:43:41;15.60;79.80
64796;DHT22;51229;51.980;6.722;2022-07-29T06:46:10;15.70;78.70
64796;DHT22;51229;51.980;6.722;2022-07-29T06:48:36;15.70;78.50
64796;DHT22;51229;51.980;6.722;2022-07-29T06:51:02;15.60;87.50
64796;DHT22;51229;51.980;6.722;2022-07-29T06:53:28;14.70;90.50
64796;DHT22;51229;51.980;6.722;2022-07-29T06:55:55;14.70;88.40
64796;DHT22;51229;51.980;6.722;2022-07-29T06:58:20;14.80;85.80
64796;DHT22;51229;51.980;6.722;2022-07-29T07:00:54;15.00;88.30
64796;DHT22;51229;51.980;6.722;2022-07-29T07:03:20;15.10;83.00
64796;DHT22;51229;51.980;6.722;2022-07-29T07:05:46;15.00;86.00
64796;DHT22;51229;51.980;6.722;2022-07-29T07:08:12;14.40;89.40
64796;DHT22;51229;51.980;6.722;2022-07-29T07:10:39;14.50;91.10
64796;DHT22;51229;51.980;6.722;2022-07-29T07:13:05;14.30;93.00
64796;DHT22;51229;51.980;6.722;2022-07-29T07:15:31;13.90;93.60
64796;DHT22;51229;51.980;6.722;2022-07-29T07:17:57;14.90;86.60
64796;DHT22;51229;51.980;6.722;2022-07-29T07:20:23;15.20;84.00
64796;DHT22;51229;51.980;6.722;2022-07-29T07:22:49;15.30;82.40
64796;DHT22;51229;51.980;6.722;2022-07-29T07:25:15;14.90;85.90
64796;DHT22;51229;51.980;6.722;2022-07-29T07:27:43;14.60;95.90
64796;DHT22;51229;51.980;6.722;2022-07-29T07:30:09;14.70;93.90
64796;DHT22;51229;51.980;6.722;2022-07-29T07:32:35;14.70;91.70
64796;DHT22;51229;51.980;6.722;2022-07-29T07:35:01;14.70;91.00
64796;DHT22;51229;51.980;6.722;2022-07-29T07:37:27;14.80;86.80
64796;DHT22;51229;51.980;6.722;2022-07-29T07:39:53;14.60;91.30
64796;DHT22;51229;51.980;6.722;2022-07-29T07:42:19;14.00;98.80
64796;DHT22;51229;51.980;6.722;2022-07-29T07:44:45;14.10;93.80
64796;DHT22;51229;51.980;6.722;2022-07-29T07:47:12;14.00;92.40
64796;DHT22;51229;51.980;6.722;2022-07-29T07:49:38;14.40;97.60
64796;DHT22;51229;51.980;6.722;2022-07-29T07:52:05;13.50;99.90
64796;DHT22;51229;51.980;6.722;2022-07-29T07:54:31;13.20;98.50
64796;DHT22;51229;51.980;6.722;2022-07-29T07:56:56;14.40;92.10
64796;DHT22;51229;51.980;6.722;2022-07-29T07:59:22;14.50;93.60
64796;DHT22;51229;51.980;6.722;2022-07-29T08:01:48;14.60;91.10
64796;DHT22;51229;51.980;6.722;2022-07-29T08:04:14;14.90;89.20
64796;DHT22;51229;51.980;6.722;2022-07-29T08:06:39;15.20;86.90
64796;DHT22;51229;51.980;6.722;2022-07-29T08:09:05;15.10;86.80
64796;DHT22;51229;51.980;6.722;2022-07-29T08:11:31;15.20;85.90
64796;DHT22;51229;51.980;6.722;2022-07-29T08:13:57;14.80;95.20
64796;DHT22;51229;51.980;6.722;2022-07-29T08:16:23;14.40;97.80
64796;DHT22;51229;51.980;6.722;2022-07-29T08:18:51;14.60;94.50
64796;DHT22;51229;51.980;6.722;2022-07-29T08:21:17;14.50;94.20
64796;DHT22;51229;51.980;6.722;2022-07-29T08:23:46;14.10;93.10
64796;DHT22;51229;51.980;6.722;2022-07-29T08:26:14;14.70;90.20
64796;DHT22;51229;51.980;6.722;2022-07-29T08:28:42;15.10;87.70
64796;DHT22;51229;51.980;6.722;2022-07-29T08:31:11;14.50;97.10
64796;DHT22;51229;51.980;6.722;2022-07-29T08:33:38;13.80;99.90
64796;DHT22;51229;51.980;6.722;2022-07-29T08:36:04;13.80;96.60
64796;DHT22;51229;51.980;6.722;2022-07-29T08:38:30;14.00;93.10
64796;DHT22;51229;51.980;6.722;2022-07-29T08:40:55;13.70;99.90
64796;DHT22;51229;51.980;6.722;2022-07-29T08:43:21;13.30;99.90
64796;DHT22;51229;51.980;6.722;2022-07-29T08:45:49;13.70;94.80
64796;DHT22;51229;51.980;6.722;2022-07-29T08:48:18;14.50;95.40
64796;DHT22;51229;51.980;6.722;2022-07-29T08:50:45;14.00;95.10
64796;DHT22;51229;51.980;6.722;2022-07-29T08:53:12;13.70;99.90
64796;DHT22;51229;51.980;6.722;2022-07-29T08:55:43;13.40;99.90
64796;DHT22;51229;51.980;6.722;2022-07-29T08:58:09;13.50;95.90
64796;DHT22;51229;51.980;6.722;2022-07-29T09:00:37;13.50;96.30
64796;DHT22;51229;51.980;6.722;2022-07-29T09:03:04;13.70;96.10
64796;DHT22;51229;51.980;6.722;2022-07-29T09:05:31;13.70;99.90
64796;DHT22;51229;51.980;6.722;2022-07-29T09:07:58;13.70;94.30
64796;DHT22;51229;51.980;6.722;2022-07-29T09:10:24;14.10;93.40
64796;DHT22;51229;51.980;6.722;2022-07-29T09:12:50;14.00;99.90
64796;DHT22;51229;51.980;6.722;2022-07-29T09:15:15;13.70;96.90
64796;DHT22;51229;51.980;6.722;2022-07-29T09:20:11;13.40;97.80
64796;DHT22;51229;51.980;6.722;2022-07-29T09:22:37;13.50;97.10
64796;DHT22;51229;51.980;6.722;2022-07-29T09:25:03;14.00;99.90
64796;DHT22;51229;51.980;6.722;2022-07-29T09:27:29;14.00;94.70
64796;DHT22;51229;51.980;6.722;2022-07-29T09:30:06;14.50;92.80
64796;DHT22;51229;51.980;6.722;2022-07-29T09:32:54;14.70;92.00
64796;DHT22;51229;51.980;6.722;2022-07-29T09:35:22;14.60;94.40
64796;DHT22;51229;51.980;6.722;2022-07-29T09:37:48;14.30;99.90
64796;DHT22;51229;51.980;6.722;2022-07-29T09:40:16;14.00;99.90
64796;DHT22;51229;51.980;6.722;2022-07-29T09:42:43;13.40;99.90
64796;DHT22;51229;51.980;6.722;2022-07-29T09:45:09;13.60;99.90
64796;DHT22;51229;51.980;6.722;2022-07-29T09:47:44;13.60;99.90
64796;DHT22;51229;51.980;6.722;2022-07-29T09:50:11;13.80;96.80
64796;DHT22;51229;51.980;6.722;2022-07-29T09:52:48;14.40;94.30
64796;DHT22;51229;51.980;6.722;2022-07-29T09:55:14;14.70;92.40
64796;DHT22;51229;51.980;6.722;2022-07-29T09:57:40;14.80;91.90
64796;DHT22;51229;51.980;6.722;2022-07-29T10:02:41;15.00;91.10
64796;DHT22;51229;51.980;6.722;2022-07-29T10:05:24;15.10;91.10
64796;DHT22;51229;51.980;6.722;2022-07-29T10:07:56;15.20;90.80
64796;DHT22;51229;51.980;6.722;2022-07-29T10:10:33;15.10;92.00
64796;DHT22;51229;51.980;6.722;2022-07-29T10:13:04;15.00;91.60
64796;DHT22;51229;51.980;6.722;2022-07-29T10:15:33;15.00;99.90
64796;DHT22;51229;51.980;6.722;2022-07-29T10:17:59;14.30;99.20
64796;DHT22;51229;51.980;6.722;2022-07-29T10:20:26;14.40;99.90
64796;DHT22;51229;51.980;6.722;2022-07-29T10:22:53;14.70;93.80
64796;DHT22;51229;51.980;6.722;2022-07-29T10:25:19;15.00;93.00
64796;DHT22;51229;51.980;6.722;2022-07-29T10:27:46;14.90;93.90
64796;DHT22;51229;51.980;6.722;2022-07-29T10:30:14;15.20;92.10
64796;DHT22;51229;51.980;6.722;2022-07-29T10:32:45;15.30;91.10
64796;DHT22;51229;51.980;6.722;2022-07-29T10:36:12;15.40;90.60
64796;DHT22;51229;51.980;6.722;2022-07-29T10:44:18;15.40;90.20
64796;DHT22;51229;51.980;6.722;2022-07-29T10:46:44;15.40;90.90
64796;DHT22;51229;51.980;6.722;2022-07-29T10:49:12;15.40;90.10
64796;DHT22;51229;51.980;6.722;2022-07-29T10:51:54;15.50;90.60
64796;DHT22;51229;51.980;6.722;2022-07-29T11:05:17;15.60;88.30
64796;DHT22;51229;51.980;6.722;2022-07-29T11:10:38;15.60;87.30
64796;DHT22;51229;51.980;6.722;2022-07-29T11:13:04;15.60;87.10
64796;DHT22;51229;51.980;6.722;2022-07-29T11:15:55;15.70;87.50
64796;DHT22;51229;51.980;6.722;2022-07-29T11:18:21;15.80;87.00
64796;DHT22;51229;51.980;6.722;2022-07-29T11:20:48;15.80;86.10
64796;DHT22;51229;51.980;6.722;2022-07-29T11:23:32;15.90;86.30
64796;DHT22;51229;51.980;6.722;2022-07-29T11:26:13;15.90;85.60
64796;DHT22;51229;51.980;6.722;2022-07-29T11:28:52;16.00;85.20
64796;DHT22;51229;51.980;6.722;2022-07-29T11:31:44;16.10;84.60
64796;DHT22;51229;51.980;6.722;2022-07-29T11:34:26;16.20;84.10
64796;DHT22;51229;51.980;6.722;2022-07-29T11:39:46;16.60;82.60
64796;DHT22;51229;51.980;6.722;2022-07-29T11:45:26;16.80;81.10
64796;DHT22;51229;51.980;6.722;2022-07-29T11:47:58;17.20;80.30
64796;DHT22;51229;51.980;6.722;2022-07-29T11:50:33;17.70;78.40
64796;DHT22;51229;51.980;6.722;2022-07-29T11:53:00;18.40;75.60
64796;DHT22;51229;51.980;6.722;2022-07-29T11:55:26;18.60;75.10
64796;DHT22;51229;51.980;6.722;2022-07-29T11:57:59;18.60;81.50
64796;DHT22;51229;51.980;6.722;2022-07-29T12:00:32;18.30;78.60
64796;DHT22;51229;51.980;6.722;2022-07-29T12:03:02;17.80;80.00
64796;DHT22;51229;51.980;6.722;2022-07-29T12:05:33;17.90;79.50
64796;DHT22;51229;51.980;6.722;2022-07-29T12:08:20;17.90;79.10
64796;DHT22;51229;51.980;6.722;2022-07-29T12:10:51;18.10;78.60
64796;DHT22;51229;51.980;6.722;2022-07-29T12:13:18;17.90;78.90
64796;DHT22;51229;51.980;6.722;2022-07-29T12:15:57;18.00;79.30
64796;DHT22;51229;51.980;6.722;2022-07-29T12:18:24;18.20;78.70
64796;DHT22;51229;51.980;6.722;2022-07-29T12:21:01;18.60;94.30
64796;DHT22;51229;51.980;6.722;2022-07-29T12:23:33;18.40;90.60
64796;DHT22;51229;51.980;6.722;2022-07-29T12:25:59;18.70;79.50
64796;DHT22;51229;51.980;6.722;2022-07-29T12:28:25;18.70;78.50
64796;DHT22;51229;51.980;6.722;2022-07-29T12:30:51;19.00;91.30
64796;DHT22;51229;51.980;6.722;2022-07-29T12:33:28;19.20;79.90
64796;DHT22;51229;51.980;6.722;2022-07-29T12:35:57;19.10;78.30
64796;DHT22;51229;51.980;6.722;2022-07-29T12:38:22;19.00;77.60
64796;DHT22;51229;51.980;6.722;2022-07-29T12:40:49;18.90;77.50
64796;DHT22;51229;51.980;6.722;2022-07-29T12:43:21;19.20;77.10
64796;DHT22;51229;51.980;6.722;2022-07-29T12:45:49;19.60;75.40
64796;DHT22;51229;51.980;6.722;2022-07-29T12:48:15;19.80;88.10
64796;DHT22;51229;51.980;6.722;2022-07-29T12:51:00;19.30;83.30
64796;DHT22;51229;51.980;6.722;2022-07-29T12:53:27;19.30;76.50
64796;DHT22;51229;51.980;6.722;2022-07-29T12:55:54;19.80;90.10
64796;DHT22;51229;51.980;6.722;2022-07-29T12:58:35;19.60;86.60
64796;DHT22;51229;51.980;6.722;2022-07-29T13:01:01;19.50;79.70
64796;DHT22;51229;51.980;6.722;2022-07-29T13:03:28;19.80;77.10
64796;DHT22;51229;51.980;6.722;2022-07-29T13:05:53;20.40;73.80
64796;DHT22;51229;51.980;6.722;2022-07-29T13:08:19;21.10;76.60
64796;DHT22;51229;51.980;6.722;2022-07-29T13:10:45;21.30;82.40
64796;DHT22;51229;51.980;6.722;2022-07-29T13:13:13;22.00;70.20
64796;DHT22;51229;51.980;6.722;2022-07-29T13:15:42;21.90;71.30
64796;DHT22;51229;51.980;6.722;2022-07-29T13:18:31;22.40;69.30
64796;DHT22;51229;51.980;6.722;2022-07-29T13:20:58;22.40;68.10
64796;DHT22;51229;51.980;6.722;2022-07-29T13:23:35;21.90;74.80
64796;DHT22;51229;51.980;6.722;2022-07-29T13:26:08;21.80;71.70
64796;DHT22;51229;51.980;6.722;2022-07-29T13:28:34;21.60;73.40
64796;DHT22;51229;51.980;6.722;2022-07-29T13:31:00;21.60;70.30
64796;DHT22;51229;51.980;6.722;2022-07-29T13:33:26;21.60;69.90
64796;DHT22;51229;51.980;6.722;2022-07-29T13:35:52;21.80;71.90
64796;DHT22;51229;51.980;6.722;2022-07-29T13:38:17;22.60;74.80
64796;DHT22;51229;51.980;6.722;2022-07-29T13:40:43;22.30;68.50
64796;DHT22;51229;51.980;6.722;2022-07-29T13:43:10;22.70;69.40
64796;DHT22;51229;51.980;6.722;2022-07-29T13:45:35;23.10;67.70
64796;DHT22;51229;51.980;6.722;2022-07-29T13:48:02;23.60;67.70
64796;DHT22;51229;51.980;6.722;2022-07-29T13:50:27;23.30;74.20
64796;DHT22;51229;51.980;6.722;2022-07-29T13:52:53;22.60;69.80
64796;DHT22;51229;51.980;6.722;2022-07-29T13:55:19;23.40;73.00
64796;DHT22;51229;51.980;6.722;2022-07-29T13:57:45;23.60;70.40
64796;DHT22;51229;51.980;6.722;2022-07-29T14:00:11;23.70;66.90
64796;DHT22;51229;51.980;6.722;2022-07-29T14:02:37;23.70;67.50
64796;DHT22;51229;51.980;6.722;2022-07-29T14:05:05;24.20;70.70
64796;DHT22;51229;51.980;6.722;2022-07-29T14:07:30;23.30;72.10
64796;DHT22;51229;51.980;6.722;2022-07-29T14:09:56;24.00;70.40
64796;DHT22;51229;51.980;6.722;2022-07-29T14:12:22;24.00;67.50
64796;DHT22;51229;51.980;6.722;2022-07-29T14:14:48;24.00;66.50
64796;DHT22;51229;51.980;6.722;2022-07-29T14:17:14;23.70;66.80
64796;DHT22;51229;51.980;6.722;2022-07-29T14:19:40;23.90;66.30
64796;DHT22;51229;51.980;6.722;2022-07-29T14:22:07;24.20;66.70
64796;DHT22;51229;51.980;6.722;2022-07-29T14:24:34;24.30;67.20
64796;DHT22;51229;51.980;6.722;2022-07-29T14:27:03;24.60;64.70
64796;DHT22;51229;51.980;6.722;2022-07-29T14:29:29;24.30;65.60
64796;DHT22;51229;51.980;6.722;2022-07-29T14:31:55;24.10;65.70
64796;DHT22;51229;51.980;6.722;2022-07-29T14:34:20;23.70;65.90
64796;DHT22;51229;51.980;6.722;2022-07-29T14:36:46;23.70;66.40
64796;DHT22;51229;51.980;6.722;2022-07-29T14:39:12;24.00;66.30
64796;DHT22;51229;51.980;6.722;2022-07-29T14:41:37;23.70;65.50
64796;DHT22;51229;51.980;6.722;2022-07-29T14:44:03;22.80;68.00
64796;DHT22;51229;51.980;6.722;2022-07-29T14:46:29;23.10;67.50
64796;DHT22;51229;51.980;6.722;2022-07-29T14:48:55;22.80;68.10
64796;DHT22;51229;51.980;6.722;2022-07-29T14:51:20;22.50;68.70
64796;DHT22;51229;51.980;6.722;2022-07-29T14:53:46;22.30;69.50
64796;DHT22;51229;51.980;6.722;2022-07-29T14:56:12;22.20;69.30
64796;DHT22;51229;51.980;6.722;2022-07-29T14:58:38;21.50;71.90
64796;DHT22;51229;51.980;6.722;2022-07-29T15:01:03;22.00;71.50
64796;DHT22;51229;51.980;6.722;2022-07-29T15:03:29;22.10;70.50
64796;DHT22;51229;51.980;6.722;2022-07-29T15:05:55;22.30;70.00
64796;DHT22;51229;51.980;6.722;2022-07-29T15:08:20;22.30;70.20
64796;DHT22;51229;51.980;6.722;2022-07-29T15:10:46;22.10;70.10
64796;DHT22;51229;51.980;6.722;2022-07-29T15:13:12;21.70;71.10
64796;DHT22;51229;51.980;6.722;2022-07-29T15:15:38;21.40;71.70
64796;DHT22;51229;51.980;6.722;2022-07-29T15:18:04;21.90;71.50
64796;DHT22;51229;51.980;6.722;2022-07-29T15:20:30;22.10;70.80
64796;DHT22;51229;51.980;6.722;2022-07-29T15:22:56;22.30;70.10
64796;DHT22;51229;51.980;6.722;2022-07-29T15:25:25;22.40;69.90
64796;DHT22;51229;51.980;6.722;2022-07-29T15:27:51;22.20;70.00
64796;DHT22;51229;51.980;6.722;2022-07-29T15:30:17;21.70;71.50
64796;DHT22;51229;51.980;6.722;2022-07-29T15:32:43;21.80;70.70
64796;DHT22;51229;51.980;6.722;2022-07-29T15:35:10;21.60;68.90
64796;DHT22;51229;51.980;6.722;2022-07-29T15:37:37;21.70;71.50
64796;DHT22;51229;51.980;6.722;2022-07-29T15:40:06;21.60;70.10
64796;DHT22;51229;51.980;6.722;2022-07-29T15:42:32;21.60;71.00
64796;DHT22;51229;51.980;6.722;2022-07-29T15:45:00;21.40;71.90
64796;DHT22;51229;51.980;6.722;2022-07-29T15:47:28;21.80;71.60
64796;DHT22;51229;51.980;6.722;2022-07-29T15:49:57;22.00;70.70
64796;DHT22;51229;51.980;6.722;2022-07-29T15:52:22;22.00;70.70
64796;DHT22;51229;51.980;6.722;2022-07-29T15:54:48;21.90;71.00
64796;DHT22;51229;51.980;6.722;2022-07-29T15:57:14;21.90;71.10
64796;DHT22;51229;51.980;6.722;2022-07-29T15:59:39;21.60;71.40
64796;DHT22;51229;51.980;6.722;2022-07-29T16:02:05;21.40;69.90
64796;DHT22;51229;51.980;6.722;2022-07-29T16:04:31;21.40;70.40
64796;DHT22;51229;51.980;6.722;2022-07-29T16:06:57;21.70;71.40
64796;DHT22;51229;51.980;6.722;2022-07-29T16:09:22;21.90;71.00
64796;DHT22;51229;51.980;6.722;2022-07-29T16:11:49;22.00;70.70
64796;DHT22;51229;51.980;6.722;2022-07-29T16:14:18;21.90;71.20
64796;DHT22;51229;51.980;6.722;2022-07-29T16:16:44;21.90;70.90
64796;DHT22;51229;51.980;6.722;2022-07-29T16:19:10;21.90;70.90